sensor_id;sensor_type;location;lat;lon;timestamp;P1;durP1;ratioP1;P2;durP2;ratioP2
36829;SDS011;22767;47.328;9.640;2022-08-30T00:00:55;8.85;;;5.43;;
36829;SDS011;22767;47.328;9.640;2022-08-30T00:03:48;5.20;;;4.75;;
36829;SDS011;22767;47.328;9.640;2022-08-30T00:06:34;6.53;;;5.22;;
36829;SDS011;22767;47.328;9.640;2022-08-30T00:09:20;9.15;;;5.38;;
36829;SDS011;22767;47.328;9.640;2022-08-30T00:12:07;7.80;;;5.20;;
36829;SDS011;22767;47.328;9.640;2022-08-30T00:14:56;5.50;;;4.97;;
36829;SDS011;22767;47.328;9.640;2022-08-30T00:17:42;6.65;;;5.22;;
36829;SDS011;22767;47.328;9.640;2022-08-30T00:20:30;6.18;;;5.00;;
36829;SDS011;22767;47.328;9.640;2022-08-30T00:23:17;9.15;;;5.25;;
36829;SDS011;22767;47.328;9.640;2022-08-30T00:26:04;7.03;;;5.18;;
36829;SDS011;22767;47.328;9.640;2022-08-30T00:28:51;6.05;;;5.45;;
36829;SDS011;22767;47.328;9.640;2022-08-30T00:31:37;6.07;;;4.82;;
36829;SDS011;22767;47.328;9.640;2022-08-30T00:34:24;8.07;;;5.20;;
36829;SDS011;22767;47.328;9.640;2022-08-30T00:37:10;5.20;;;4.80;;
36829;SDS011;22767;47.328;9.640;2022-08-30T00:39:57;5.60;;;4.50;;
36829;SDS011;22767;47.328;9.640;2022-08-30T00:42:44;5.28;;;4.78;;
36829;SDS011;22767;47.328;9.640;2022-08-30T00:45:31;7.10;;;4.97;;
36829;SDS011;22767;47.328;9.640;2022-08-30T00:48:18;6.88;;;4.72;;
36829;SDS011;22767;47.328;9.640;2022-08-30T00:51:06;7.40;;;5.15;;
36829;SDS011;22767;47.328;9.640;2022-08-30T00:53:54;7.80;;;5.00;;
36829;SDS011;22767;47.328;9.640;2022-08-30T00:56:42;4.75;;;4.30;;
36829;SDS011;22767;47.328;9.640;2022-08-30T00:59:28;6.75;;;4.65;;
36829;SDS011;22767;47.328;9.640;2022-08-30T01:02:17;4.93;;;4.50;;
36829;SDS011;22767;47.328;9.640;2022-08-30T01:05:04;5.68;;;4.85;;
36829;SDS011;22767;47.328;9.640;2022-08-30T01:07:52;5.68;;;4.85;;
36829;SDS011;22767;47.328;9.640;2022-08-30T01:10:39;5.38;;;4.20;;
36829;SDS011;22767;47.328;9.640;2022-08-30T01:13:25;4.90;;;4.50;;
36829;SDS011;22767;47.328;9.640;2022-08-30T01:16:12;4.18;;;3.78;;
36829;SDS011;22767;47.328;9.640;2022-08-30T01:18:58;5.32;;;4.70;;
36829;SDS011;22767;47.328;9.640;2022-08-30T01:21:47;4.63;;;4.00;;
36829;SDS011;22767;47.328;9.640;2022-08-30T01:24:34;4.88;;;4.38;;
36829;SDS011;22767;47.328;9.640;2022-08-30T01:27:21;4.90;;;4.47;;
36829;SDS011;22767;47.328;9.640;2022-08-30T01:30:08;4.65;;;4.20;;
36829;SDS011;22767;47.328;9.640;2022-08-30T01:32:56;4.75;;;4.38;;
36829;SDS011;22767;47.328;9.640;2022-08-30T01:35:46;4.85;;;4.45;;
36829;SDS011;22767;47.328;9.640;2022-08-30T01:38:35;7.32;;;4.65;;
36829;SDS011;22767;47.328;9.640;2022-08-30T01:41:32;4.80;;;4.30;;
36829;SDS011;22767;47.328;9.640;2022-08-30T01:44:19;6.00;;;4.75;;
36829;SDS011;22767;47.328;9.640;2022-08-30T01:47:05;6.43;;;4.80;;
36829;SDS011;22767;47.328;9.640;2022-08-30T01:49:52;6.72;;;4.55;;
36829;SDS011;22767;47.328;9.640;2022-08-30T01:52:38;5.20;;;4.80;;
36829;SDS011;22767;47.328;9.640;2022-08-30T01:55:25;5.32;;;4.75;;
36829;SDS011;22767;47.328;9.640;2022-08-30T01:58:12;6.60;;;5.03;;
36829;SDS011;22767;47.328;9.640;2022-08-30T02:00:58;6.45;;;5.00;;
36829;SDS011;22767;47.328;9.640;2022-08-30T02:03:45;5.43;;;4.82;;
36829;SDS011;22767;47.328;9.640;2022-08-30T02:06:32;5.10;;;4.60;;
36829;SDS011;22767;47.328;9.640;2022-08-30T02:09:19;5.30;;;4.80;;
36829;SDS011;22767;47.328;9.640;2022-08-30T02:12:06;5.18;;;4.45;;
36829;SDS011;22767;47.328;9.640;2022-08-30T02:14:56;5.75;;;4.60;;
36829;SDS011;22767;47.328;9.640;2022-08-30T02:17:42;5.35;;;4.40;;
36829;SDS011;22767;47.328;9.640;2022-08-30T02:20:28;7.35;;;4.97;;
36829;SDS011;22767;47.328;9.640;2022-08-30T02:23:15;5.35;;;4.47;;
36829;SDS011;22767;47.328;9.640;2022-08-30T02:26:02;5.07;;;4.57;;
36829;SDS011;22767;47.328;9.640;2022-08-30T02:28:49;5.30;;;4.78;;
36829;SDS011;22767;47.328;9.640;2022-08-30T02:31:35;11.07;;;4.80;;
36829;SDS011;22767;47.328;9.640;2022-08-30T02:34:22;5.47;;;4.82;;
36829;SDS011;22767;47.328;9.640;2022-08-30T02:37:08;6.47;;;4.70;;
36829;SDS011;22767;47.328;9.640;2022-08-30T02:39:54;4.85;;;4.35;;
36829;SDS011;22767;47.328;9.640;2022-08-30T02:42:41;5.60;;;4.50;;
36829;SDS011;22767;47.328;9.640;2022-08-30T02:45:27;8.82;;;5.05;;
36829;SDS011;22767;47.328;9.640;2022-08-30T02:48:14;5.53;;;5.03;;
36829;SDS011;22767;47.328;9.640;2022-08-30T02:51:04;5.70;;;5.10;;
36829;SDS011;22767;47.328;9.640;2022-08-30T02:53:51;6.25;;;4.50;;
36829;SDS011;22767;47.328;9.640;2022-08-30T02:56:37;5.30;;;4.80;;
36829;SDS011;22767;47.328;9.640;2022-08-30T02:59:24;4.93;;;4.43;;
36829;SDS011;22767;47.328;9.640;2022-08-30T03:02:11;5.18;;;4.68;;
36829;SDS011;22767;47.328;9.640;2022-08-30T03:04:57;6.50;;;4.82;;
36829;SDS011;22767;47.328;9.640;2022-08-30T03:07:44;5.15;;;4.72;;
36829;SDS011;22767;47.328;9.640;2022-08-30T03:10:31;6.82;;;4.88;;
36829;SDS011;22767;47.328;9.640;2022-08-30T03:13:18;5.13;;;4.63;;
36829;SDS011;22767;47.328;9.640;2022-08-30T03:16:05;6.43;;;4.60;;
36829;SDS011;22767;47.328;9.640;2022-08-30T03:18:51;5.10;;;4.60;;
36829;SDS011;22767;47.328;9.640;2022-08-30T03:21:38;4.38;;;4.07;;
36829;SDS011;22767;47.328;9.640;2022-08-30T03:24:24;4.55;;;3.65;;
36829;SDS011;22767;47.328;9.640;2022-08-30T03:27:11;6.93;;;4.50;;
36829;SDS011;22767;47.328;9.640;2022-08-30T03:29:57;4.38;;;3.97;;
36829;SDS011;22767;47.328;9.640;2022-08-30T03:32:44;6.93;;;4.43;;
36829;SDS011;22767;47.328;9.640;2022-08-30T03:35:30;5.20;;;4.63;;
36829;SDS011;22767;47.328;9.640;2022-08-30T03:38:17;8.30;;;4.43;;
36829;SDS011;22767;47.328;9.640;2022-08-30T03:41:03;5.40;;;4.90;;
36829;SDS011;22767;47.328;9.640;2022-08-30T03:43:50;5.00;;;4.50;;
36829;SDS011;22767;47.328;9.640;2022-08-30T03:46:36;4.95;;;4.35;;
36829;SDS011;22767;47.328;9.640;2022-08-30T03:49:23;7.90;;;4.57;;
36829;SDS011;22767;47.328;9.640;2022-08-30T03:52:09;6.40;;;4.47;;
36829;SDS011;22767;47.328;9.640;2022-08-30T03:54:56;4.90;;;4.43;;
36829;SDS011;22767;47.328;9.640;2022-08-30T03:57:42;7.22;;;4.90;;
36829;SDS011;22767;47.328;9.640;2022-08-30T04:00:29;6.22;;;4.40;;
36829;SDS011;22767;47.328;9.640;2022-08-30T04:03:15;4.82;;;4.43;;
36829;SDS011;22767;47.328;9.640;2022-08-30T04:06:02;5.15;;;4.70;;
36829;SDS011;22767;47.328;9.640;2022-08-30T04:08:49;5.10;;;4.60;;
36829;SDS011;22767;47.328;9.640;2022-08-30T04:11:35;5.22;;;4.65;;
36829;SDS011;22767;47.328;9.640;2022-08-30T04:14:22;5.95;;;5.32;;
36829;SDS011;22767;47.328;9.640;2022-08-30T04:17:08;5.45;;;4.95;;
36829;SDS011;22767;47.328;9.640;2022-08-30T04:19:55;7.78;;;4.80;;
36829;SDS011;22767;47.328;9.640;2022-08-30T04:22:41;4.88;;;4.43;;
36829;SDS011;22767;47.328;9.640;2022-08-30T04:25:28;6.38;;;4.50;;
36829;SDS011;22767;47.328;9.640;2022-08-30T04:28:14;5.20;;;4.68;;
36829;SDS011;22767;47.328;9.640;2022-08-30T04:31:07;8.50;;;4.85;;
36829;SDS011;22767;47.328;9.640;2022-08-30T04:33:54;4.03;;;3.72;;
36829;SDS011;22767;47.328;9.640;2022-08-30T04:36:40;6.50;;;4.55;;
36829;SDS011;22767;47.328;9.640;2022-08-30T04:39:27;6.65;;;4.75;;
36829;SDS011;22767;47.328;9.640;2022-08-30T04:42:13;5.75;;;4.25;;
36829;SDS011;22767;47.328;9.640;2022-08-30T04:45:00;4.53;;;4.10;;
36829;SDS011;22767;47.328;9.640;2022-08-30T04:47:47;10.43;;;5.18;;
36829;SDS011;22767;47.328;9.640;2022-08-30T04:50:34;4.43;;;4.00;;
36829;SDS011;22767;47.328;9.640;2022-08-30T04:53:20;6.40;;;4.80;;
36829;SDS011;22767;47.328;9.640;2022-08-30T04:56:08;5.53;;;4.18;;
36829;SDS011;22767;47.328;9.640;2022-08-30T04:58:54;8.57;;;4.97;;
36829;SDS011;22767;47.328;9.640;2022-08-30T05:01:41;7.25;;;4.80;;
36829;SDS011;22767;47.328;9.640;2022-08-30T05:04:27;6.38;;;4.78;;
36829;SDS011;22767;47.328;9.640;2022-08-30T05:07:14;4.72;;;3.80;;
36829;SDS011;22767;47.328;9.640;2022-08-30T05:10:00;4.90;;;4.05;;
36829;SDS011;22767;47.328;9.640;2022-08-30T05:12:47;6.30;;;4.07;;
36829;SDS011;22767;47.328;9.640;2022-08-30T05:15:33;4.85;;;4.45;;
36829;SDS011;22767;47.328;9.640;2022-08-30T05:18:20;5.10;;;4.60;;
36829;SDS011;22767;47.328;9.640;2022-08-30T05:21:11;5.00;;;4.60;;
36829;SDS011;22767;47.328;9.640;2022-08-30T05:23:58;5.93;;;4.80;;
36829;SDS011;22767;47.328;9.640;2022-08-30T05:26:45;5.47;;;4.97;;
36829;SDS011;22767;47.328;9.640;2022-08-30T05:29:32;7.28;;;4.50;;
36829;SDS011;22767;47.328;9.640;2022-08-30T05:32:18;5.40;;;4.80;;
36829;SDS011;22767;47.328;9.640;2022-08-30T05:35:05;5.82;;;4.53;;
36829;SDS011;22767;47.328;9.640;2022-08-30T05:37:52;7.07;;;4.82;;
36829;SDS011;22767;47.328;9.640;2022-08-30T05:40:39;4.68;;;4.22;;
36829;SDS011;22767;47.328;9.640;2022-08-30T05:43:26;5.68;;;4.07;;
36829;SDS011;22767;47.328;9.640;2022-08-30T05:46:13;7.07;;;4.53;;
36829;SDS011;22767;47.328;9.640;2022-08-30T05:49:04;5.70;;;4.72;;
36829;SDS011;22767;47.328;9.640;2022-08-30T05:51:51;5.03;;;4.53;;
36829;SDS011;22767;47.328;9.640;2022-08-30T05:54:37;5.55;;;4.75;;
36829;SDS011;22767;47.328;9.640;2022-08-30T05:57:24;5.80;;;4.65;;
36829;SDS011;22767;47.328;9.640;2022-08-30T06:00:12;5.75;;;4.20;;
36829;SDS011;22767;47.328;9.640;2022-08-30T06:02:59;4.72;;;4.25;;
36829;SDS011;22767;47.328;9.640;2022-08-30T06:05:46;4.68;;;4.25;;
36829;SDS011;22767;47.328;9.640;2022-08-30T06:08:33;5.22;;;3.90;;
36829;SDS011;22767;47.328;9.640;2022-08-30T06:11:20;4.05;;;3.75;;
36829;SDS011;22767;47.328;9.640;2022-08-30T06:14:07;4.72;;;4.07;;
36829;SDS011;22767;47.328;9.640;2022-08-30T06:16:54;5.30;;;4.10;;
36829;SDS011;22767;47.328;9.640;2022-08-30T06:19:40;5.13;;;4.10;;
36829;SDS011;22767;47.328;9.640;2022-08-30T06:22:27;4.93;;;4.32;;
36829;SDS011;22767;47.328;9.640;2022-08-30T06:25:13;4.57;;;4.00;;
36829;SDS011;22767;47.328;9.640;2022-08-30T06:28:00;4.32;;;3.70;;
36829;SDS011;22767;47.328;9.640;2022-08-30T06:30:47;4.85;;;4.10;;
36829;SDS011;22767;47.328;9.640;2022-08-30T06:33:33;7.00;;;4.10;;
36829;SDS011;22767;47.328;9.640;2022-08-30T06:36:21;4.35;;;3.95;;
36829;SDS011;22767;47.328;9.640;2022-08-30T06:39:08;8.32;;;4.65;;
36829;SDS011;22767;47.328;9.640;2022-08-30T06:41:54;5.05;;;4.55;;
36829;SDS011;22767;47.328;9.640;2022-08-30T06:44:41;5.10;;;4.18;;
36829;SDS011;22767;47.328;9.640;2022-08-30T06:47:28;6.80;;;4.30;;
36829;SDS011;22767;47.328;9.640;2022-08-30T06:50:15;4.30;;;3.90;;
36829;SDS011;22767;47.328;9.640;2022-08-30T06:53:02;4.82;;;4.30;;
36829;SDS011;22767;47.328;9.640;2022-08-30T06:56:00;7.40;;;4.15;;
36829;SDS011;22767;47.328;9.640;2022-08-30T06:58:47;5.43;;;4.18;;
36829;SDS011;22767;47.328;9.640;2022-08-30T07:01:33;5.93;;;4.80;;
36829;SDS011;22767;47.328;9.640;2022-08-30T07:04:20;7.88;;;4.18;;
36829;SDS011;22767;47.328;9.640;2022-08-30T07:07:09;6.13;;;4.50;;
36829;SDS011;22767;47.328;9.640;2022-08-30T07:09:55;7.40;;;4.20;;
36829;SDS011;22767;47.328;9.640;2022-08-30T07:12:42;4.50;;;4.10;;
36829;SDS011;22767;47.328;9.640;2022-08-30T07:15:28;4.35;;;3.95;;
36829;SDS011;22767;47.328;9.640;2022-08-30T07:18:15;6.70;;;4.18;;
36829;SDS011;22767;47.328;9.640;2022-08-30T07:21:25;10.07;;;4.65;;
36829;SDS011;22767;47.328;9.640;2022-08-30T07:24:12;4.65;;;4.25;;
36829;SDS011;22767;47.328;9.640;2022-08-30T07:26:58;4.95;;;4.45;;
36829;SDS011;22767;47.328;9.640;2022-08-30T07:29:47;9.35;;;4.55;;
36829;SDS011;22767;47.328;9.640;2022-08-30T07:32:34;5.32;;;4.50;;
36829;SDS011;22767;47.328;9.640;2022-08-30T07:35:22;8.85;;;4.75;;
36829;SDS011;22767;47.328;9.640;2022-08-30T07:38:11;6.75;;;4.68;;
36829;SDS011;22767;47.328;9.640;2022-08-30T07:40:58;5.43;;;4.32;;
36829;SDS011;22767;47.328;9.640;2022-08-30T07:43:45;8.02;;;4.50;;
36829;SDS011;22767;47.328;9.640;2022-08-30T17:10:11;4.18;;;3.70;;
36829;SDS011;22767;47.328;9.640;2022-08-30T17:12:57;4.93;;;4.07;;
36829;SDS011;22767;47.328;9.640;2022-08-30T17:15:44;4.30;;;3.38;;
36829;SDS011;22767;47.328;9.640;2022-08-30T17:18:33;4.10;;;3.70;;
36829;SDS011;22767;47.328;9.640;2022-08-30T17:21:20;4.60;;;4.10;;
36829;SDS011;22767;47.328;9.640;2022-08-30T17:24:06;5.68;;;4.20;;
36829;SDS011;22767;47.328;9.640;2022-08-30T17:26:53;4.85;;;3.72;;
36829;SDS011;22767;47.328;9.640;2022-08-30T17:29:39;5.43;;;4.22;;
36829;SDS011;22767;47.328;9.640;2022-08-30T17:32:25;5.30;;;4.53;;
36829;SDS011;22767;47.328;9.640;2022-08-30T17:35:12;4.63;;;4.22;;
36829;SDS011;22767;47.328;9.640;2022-08-30T17:37:59;5.25;;;4.47;;
36829;SDS011;22767;47.328;9.640;2022-08-30T17:40:45;5.95;;;5.28;;
36829;SDS011;22767;47.328;9.640;2022-08-30T17:43:33;5.65;;;4.93;;
36829;SDS011;22767;47.328;9.640;2022-08-30T17:46:19;5.93;;;4.60;;
36829;SDS011;22767;47.328;9.640;2022-08-30T17:49:06;5.30;;;4.63;;
36829;SDS011;22767;47.328;9.640;2022-08-30T17:51:53;8.38;;;4.65;;
36829;SDS011;22767;47.328;9.640;2022-08-30T17:54:40;7.70;;;4.20;;
36829;SDS011;22767;47.328;9.640;2022-08-30T17:57:27;4.28;;;3.90;;
36829;SDS011;22767;47.328;9.640;2022-08-30T18:00:13;6.40;;;4.70;;
36829;SDS011;22767;47.328;9.640;2022-08-30T18:03:00;4.95;;;4.50;;
36829;SDS011;22767;47.328;9.640;2022-08-30T18:05:46;6.22;;;4.88;;
36829;SDS011;22767;47.328;9.640;2022-08-30T18:08:33;5.38;;;4.47;;
36829;SDS011;22767;47.328;9.640;2022-08-30T18:11:20;6.00;;;4.35;;
36829;SDS011;22767;47.328;9.640;2022-08-30T18:14:07;8.73;;;4.95;;
36829;SDS011;22767;47.328;9.640;2022-08-30T18:16:55;9.05;;;5.53;;
36829;SDS011;22767;47.328;9.640;2022-08-30T18:19:41;6.18;;;5.57;;
36829;SDS011;22767;47.328;9.640;2022-08-30T18:22:28;7.18;;;5.10;;
36829;SDS011;22767;47.328;9.640;2022-08-30T18:25:32;6.45;;;5.30;;
36829;SDS011;22767;47.328;9.640;2022-08-30T18:28:22;6.22;;;5.20;;
36829;SDS011;22767;47.328;9.640;2022-08-30T18:31:08;5.95;;;4.57;;
36829;SDS011;22767;47.328;9.640;2022-08-30T18:33:55;5.68;;;4.47;;
36829;SDS011;22767;47.328;9.640;2022-08-30T18:36:44;5.40;;;4.90;;
36829;SDS011;22767;47.328;9.640;2022-08-30T18:39:31;5.38;;;4.22;;
36829;SDS011;22767;47.328;9.640;2022-08-30T18:42:17;6.47;;;4.82;;
36829;SDS011;22767;47.328;9.640;2022-08-30T18:45:04;8.10;;;5.07;;
36829;SDS011;22767;47.328;9.640;2022-08-30T18:47:50;10.60;;;4.70;;
36829;SDS011;22767;47.328;9.640;2022-08-30T18:50:38;6.00;;;4.50;;
36829;SDS011;22767;47.328;9.640;2022-08-30T18:53:25;6.00;;;4.53;;
36829;SDS011;22767;47.328;9.640;2022-08-30T18:56:12;7.43;;;4.18;;
36829;SDS011;22767;47.328;9.640;2022-08-30T18:59:03;6.22;;;3.92;;
36829;SDS011;22767;47.328;9.640;2022-08-30T19:01:55;4.57;;;3.70;;
36829;SDS011;22767;47.328;9.640;2022-08-30T19:04:55;3.38;;;3.08;;
36829;SDS011;22767;47.328;9.640;2022-08-30T19:07:42;6.22;;;3.20;;
36829;SDS011;22767;47.328;9.640;2022-08-30T19:10:29;3.58;;;2.78;;
36829;SDS011;22767;47.328;9.640;2022-08-30T19:13:16;4.57;;;3.45;;
36829;SDS011;22767;47.328;9.640;2022-08-30T19:16:03;3.40;;;3.10;;
36829;SDS011;22767;47.328;9.640;2022-08-30T19:18:50;5.80;;;3.40;;
36829;SDS011;22767;47.328;9.640;2022-08-30T19:21:37;6.38;;;3.35;;
36829;SDS011;22767;47.328;9.640;2022-08-30T19:24:23;3.50;;;3.20;;
36829;SDS011;22767;47.328;9.640;2022-08-30T19:27:10;4.05;;;2.97;;
36829;SDS011;22767;47.328;9.640;2022-08-30T19:29:56;3.00;;;2.80;;
36829;SDS011;22767;47.328;9.640;2022-08-30T19:32:44;2.85;;;2.50;;
36829;SDS011;22767;47.328;9.640;2022-08-30T19:35:31;4.40;;;2.78;;
36829;SDS011;22767;47.328;9.640;2022-08-30T19:38:17;4.80;;;2.78;;
36829;SDS011;22767;47.328;9.640;2022-08-30T19:41:04;5.03;;;3.10;;
36829;SDS011;22767;47.328;9.640;2022-08-30T19:43:50;2.88;;;2.50;;
36829;SDS011;22767;47.328;9.640;2022-08-30T19:46:37;4.35;;;2.72;;
36829;SDS011;22767;47.328;9.640;2022-08-30T19:49:23;4.47;;;3.13;;
36829;SDS011;22767;47.328;9.640;2022-08-30T19:52:09;5.63;;;3.10;;
36829;SDS011;22767;47.328;9.640;2022-08-30T19:54:57;3.83;;;3.40;;
36829;SDS011;22767;47.328;9.640;2022-08-30T19:57:43;3.67;;;3.15;;
36829;SDS011;22767;47.328;9.640;2022-08-30T20:00:30;5.07;;;3.17;;
36829;SDS011;22767;47.328;9.640;2022-08-30T20:03:16;5.30;;;3.47;;
36829;SDS011;22767;47.328;9.640;2022-08-30T20:06:03;4.65;;;3.35;;
36829;SDS011;22767;47.328;9.640;2022-08-30T20:08:49;3.22;;;2.88;;
36829;SDS011;22767;47.328;9.640;2022-08-30T20:11:36;5.35;;;2.95;;
36829;SDS011;22767;47.328;9.640;2022-08-30T20:14:23;3.40;;;3.10;;
36829;SDS011;22767;47.328;9.640;2022-08-30T20:17:09;4.47;;;3.00;;
36829;SDS011;22767;47.328;9.640;2022-08-30T20:19:56;4.10;;;3.60;;
36829;SDS011;22767;47.328;9.640;2022-08-30T20:22:45;4.82;;;3.28;;
36829;SDS011;22767;47.328;9.640;2022-08-30T20:25:32;4.97;;;3.00;;
36829;SDS011;22767;47.328;9.640;2022-08-30T20:28:18;4.50;;;3.10;;
36829;SDS011;22767;47.328;9.640;2022-08-30T20:31:05;4.15;;;3.58;;
36829;SDS011;22767;47.328;9.640;2022-08-30T20:33:52;4.82;;;3.35;;
36829;SDS011;22767;47.328;9.640;2022-08-30T20:36:38;4.20;;;3.00;;
36829;SDS011;22767;47.328;9.640;2022-08-30T20:39:25;3.30;;;2.90;;
36829;SDS011;22767;47.328;9.640;2022-08-30T20:42:11;3.47;;;2.65;;
36829;SDS011;22767;47.328;9.640;2022-08-30T20:44:58;2.80;;;2.60;;
36829;SDS011;22767;47.328;9.640;2022-08-30T20:47:44;4.38;;;3.08;;
36829;SDS011;22767;47.328;9.640;2022-08-30T20:50:31;2.97;;;2.60;;
36829;SDS011;22767;47.328;9.640;2022-08-30T20:53:17;3.58;;;2.53;;
36829;SDS011;22767;47.328;9.640;2022-08-30T20:56:04;4.45;;;3.20;;
36829;SDS011;22767;47.328;9.640;2022-08-30T20:58:51;3.53;;;2.80;;
36829;SDS011;22767;47.328;9.640;2022-08-30T21:01:37;4.72;;;2.60;;
36829;SDS011;22767;47.328;9.640;2022-08-30T21:04:24;6.47;;;3.08;;
36829;SDS011;22767;47.328;9.640;2022-08-30T21:07:10;4.10;;;3.22;;
36829;SDS011;22767;47.328;9.640;2022-08-30T21:09:57;3.50;;;3.00;;
36829;SDS011;22767;47.328;9.640;2022-08-30T21:12:44;3.28;;;2.97;;
36829;SDS011;22767;47.328;9.640;2022-08-30T21:15:30;3.13;;;2.40;;
36829;SDS011;22767;47.328;9.640;2022-08-30T21:18:16;3.38;;;2.67;;
36829;SDS011;22767;47.328;9.640;2022-08-30T21:21:10;3.35;;;3.05;;
36829;SDS011;22767;47.328;9.640;2022-08-30T21:23:58;2.75;;;2.55;;
36829;SDS011;22767;47.328;9.640;2022-08-30T21:26:44;3.10;;;2.85;;
36829;SDS011;22767;47.328;9.640;2022-08-30T21:29:31;3.50;;;3.17;;
36829;SDS011;22767;47.328;9.640;2022-08-30T21:32:17;4.30;;;2.95;;
36829;SDS011;22767;47.328;9.640;2022-08-30T21:35:04;3.22;;;3.00;;
36829;SDS011;22767;47.328;9.640;2022-08-30T21:38:09;4.35;;;3.10;;
36829;SDS011;22767;47.328;9.640;2022-08-30T21:40:56;4.40;;;2.97;;
36829;SDS011;22767;47.328;9.640;2022-08-30T21:43:42;6.55;;;3.08;;
36829;SDS011;22767;47.328;9.640;2022-08-30T21:46:29;3.15;;;2.33;;
36829;SDS011;22767;47.328;9.640;2022-08-30T21:49:18;3.20;;;2.90;;
36829;SDS011;22767;47.328;9.640;2022-08-30T21:52:04;2.80;;;2.60;;
36829;SDS011;22767;47.328;9.640;2022-08-30T21:54:51;3.47;;;2.17;;
36829;SDS011;22767;47.328;9.640;2022-08-30T21:57:37;3.72;;;2.63;;
36829;SDS011;22767;47.328;9.640;2022-08-30T22:00:23;5.28;;;2.80;;
36829;SDS011;22767;47.328;9.640;2022-08-30T22:03:10;2.92;;;2.63;;
36829;SDS011;22767;47.328;9.640;2022-08-30T22:05:56;3.65;;;2.80;;
36829;SDS011;22767;47.328;9.640;2022-08-30T22:08:44;4.57;;;2.97;;
36829;SDS011;22767;47.328;9.640;2022-08-30T22:11:31;3.00;;;2.47;;
36829;SDS011;22767;47.328;9.640;2022-08-30T22:14:18;3.53;;;2.80;;
36829;SDS011;22767;47.328;9.640;2022-08-30T22:17:05;3.38;;;2.45;;
36829;SDS011;22767;47.328;9.640;2022-08-30T22:19:52;3.58;;;2.60;;
36829;SDS011;22767;47.328;9.640;2022-08-30T22:22:38;3.40;;;2.65;;
36829;SDS011;22767;47.328;9.640;2022-08-30T22:25:25;3.42;;;2.72;;
36829;SDS011;22767;47.328;9.640;2022-08-30T22:28:12;5.25;;;2.50;;
36829;SDS011;22767;47.328;9.640;2022-08-30T22:31:00;2.58;;;2.30;;
36829;SDS011;22767;47.328;9.640;2022-08-30T22:33:47;2.53;;;2.00;;
36829;SDS011;22767;47.328;9.640;2022-08-30T22:36:35;2.60;;;2.40;;
36829;SDS011;22767;47.328;9.640;2022-08-30T22:39:22;2.47;;;2.28;;
36829;SDS011;22767;47.328;9.640;2022-08-30T22:42:09;2.60;;;2.30;;
36829;SDS011;22767;47.328;9.640;2022-08-30T22:44:55;2.40;;;2.20;;
36829;SDS011;22767;47.328;9.640;2022-08-30T22:47:42;2.40;;;2.10;;
36829;SDS011;22767;47.328;9.640;2022-08-30T22:50:28;2.40;;;2.20;;
36829;SDS011;22767;47.328;9.640;2022-08-30T22:53:16;2.42;;;2.22;;
36829;SDS011;22767;47.328;9.640;2022-08-30T22:56:09;3.75;;;2.30;;
36829;SDS011;22767;47.328;9.640;2022-08-30T22:58:56;2.60;;;2.40;;
36829;SDS011;22767;47.328;9.640;2022-08-30T23:01:42;2.75;;;2.50;;
36829;SDS011;22767;47.328;9.640;2022-08-30T23:04:29;3.67;;;2.83;;
36829;SDS011;22767;47.328;9.640;2022-08-30T23:07:19;3.90;;;2.35;;
36829;SDS011;22767;47.328;9.640;2022-08-30T23:10:05;3.40;;;2.70;;
36829;SDS011;22767;47.328;9.640;2022-08-30T23:12:55;3.03;;;2.72;;
36829;SDS011;22767;47.328;9.640;2022-08-30T23:15:43;4.35;;;2.45;;
36829;SDS011;22767;47.328;9.640;2022-08-30T23:18:30;3.25;;;2.92;;
36829;SDS011;22767;47.328;9.640;2022-08-30T23:24:03;3.67;;;2.55;;
36829;SDS011;22767;47.328;9.640;2022-08-30T23:27:08;2.60;;;2.40;;
36829;SDS011;22767;47.328;9.640;2022-08-30T23:30:13;3.10;;;2.72;;
36829;SDS011;22767;47.328;9.640;2022-08-30T23:33:17;3.17;;;2.85;;
36829;SDS011;22767;47.328;9.640;2022-08-30T23:36:22;4.63;;;2.90;;
36829;SDS011;22767;47.328;9.640;2022-08-30T23:39:28;4.97;;;2.97;;
36829;SDS011;22767;47.328;9.640;2022-08-30T23:42:32;3.63;;;2.75;;
36829;SDS011;22767;47.328;9.640;2022-08-30T23:45:37;5.00;;;2.80;;
36829;SDS011;22767;47.328;9.640;2022-08-30T23:48:42;2.80;;;2.60;;
36829;SDS011;22767;47.328;9.640;2022-08-30T23:51:47;3.25;;;2.92;;
36829;SDS011;22767;47.328;9.640;2022-08-30T23:54:52;2.72;;;2.53;;
36829;SDS011;22767;47.328;9.640;2022-08-30T23:58:00;4.97;;;2.83;;
